METAR Data
IDs: Format: Raw Decoded Include TAF

Data at: 0216 UTC 20 Jan 2022

RJBB 200200Z 34020KT 9999 FEW020 06/00 Q1018 NOSIG